Sawyer County Airport
KHYR : now visible

Airfield :











YOU CAN JOIN US ON...

 
LOGIN :

Register | Disclaimer

   EN    FR    IT 

 









Legend :    VFR   Marginal VFR   IFR   Intensive IFR   Very Intensive IFR
Visi :
Ceiling :
>= 8 km
>= 3000ft
5 to 8 km
1000 to 3000 ft
1500m to 5 km
500 to 1000 ft
800 to 1500m
200 to 500 ft
< 800m
< 200 ft
Symbols :   Thunderstorms  Fog  Heavy snow  Heavy precipitations  Wind > 20 kt






- Airport Elevation : 1216 ft


KHYR - Sawyer County

CURRENT METAR :
  • 041853Z AUTO 10SM SCT046 SCT060 21/09 A3014 RMK AO2 SLP205 T02110089

EXPIRED METARs :
  • 041753Z AUTO 00000KT 10SM SCT043 SCT055 19/09 A3015 RMK AO2 SLP209 T01940094 10206 20122 58001
  • 041653Z AUTO 33003KT 10SM BKN040 BKN047 19/09 A3015 RMK AO2 SLP211 T01890094

TAF KHYR
Valid from the 04 at 18:00 until the 05 at 18:00 UTC


041720Z 0418/0518 VRB04KT P6SM SCT040
KZMP FIR / North America



MET'MAP, your aeronautical weather chart ! - Copyright ORBIFLY December 2007 - Disclaimer

ORBIFLY MET'MAP TEAM :

Programming & Development : Alexandra Zaïnal
Concept & original design : Baudouin d'Aumeries
Assistance for programming : Marc-Olivier Méhu
Technical & hardware support : Manuel Goepfert

Contact : metmap@orbifly.com




SOURCES & CREDITS :

   NOAA       Earth
Advisory